Terminal Aerodrome Forecast
Issued by NWS

Home | Current Version | Previous Version | Text Only | Print | Product List | Glossary On
Versions: 1 2 3 4 5 6 7 8 9 10 11 12 13 14 15 16 17
000
FTUS46 KSEW 271921 AAA
TAFBFI
TAF AMD
KBFI 271921Z 2719/2818 22006KT P6SM OVC026
     FM272100 27006KT P6SM SCT040 BKN250
     FM280200 30004KT P6SM SCT250
     FM281100 VRB03KT P6SM OVC016=

USA.gov is the U.S. government's official web portal to all federal, state and local government web resources and services.